Time;durP1;ratioP1;P1;durP2;ratioP2;P2;SDS_P1;SDS_P2;PMS_P1;PMS_P2;Temp;Humidity;BMP_temperature;BMP_pressure;BME280_temperature;BME280_humidity;BME280_pressure;Samples;Min_cycle;Max_cycle;Signal;HPM_P1;HPM_P2
2022/06/10 00:02:05;;;;;;;13.23;6.00;;;;;;;18.32;nan;99737.47;5036863;28;20033;-71
2022/06/10 00:04:32;;;;;;;15.07;6.78;;;;;;;18.35;nan;99744.88;5039078;28;20056;-72
2022/06/10 00:06:58;;;;;;;10.23;5.88;;;;;;;18.29;nan;99740.72;5031179;28;20082;-71
2022/06/10 00:09:24;;;;;;;10.05;6.28;;;;;;;18.33;nan;99741.72;5042036;28;20037;-71
2022/06/10 00:11:49;;;;;;;14.70;6.40;;;;;;;18.35;nan;99754.78;5049013;28;20041;-71
2022/06/10 00:14:15;;;;;;;12.32;6.03;;;;;;;18.30;nan;99747.66;5036245;28;20032;-73
2022/06/10 00:16:40;;;;;;;10.52;6.50;;;;;;;18.35;nan;99750.22;5033237;28;20537;-70
2022/06/10 00:19:06;;;;;;;12.35;5.88;;;;;;;18.27;nan;99751.69;5037495;28;20032;-72
2022/06/10 00:21:31;;;;;;;15.75;6.38;;;;;;;18.32;nan;99758.81;5042493;28;20065;-73
2022/06/10 00:23:57;;;;;;;12.25;6.35;;;;;;;18.27;nan;99758.91;5038280;28;20033;-72
2022/06/10 00:26:22;;;;;;;11.57;5.88;;;;;;;18.23;nan;99753.34;5020979;28;20041;-71
2022/06/10 00:28:48;;;;;;;10.80;6.05;;;;;;;18.22;nan;99748.28;5047362;28;20089;-70
2022/06/10 00:31:14;;;;;;;13.90;6.35;;;;;;;18.13;nan;99734.06;5039462;28;20041;-70
2022/06/10 00:33:40;;;;;;;7.32;5.95;;;;;;;18.12;nan;99737.81;5035921;28;20029;-71
2022/06/10 00:36:07;;;;;;;13.38;6.75;;;;;;;18.12;nan;99746.59;5043705;28;20029;-72
2022/06/10 00:38:32;;;;;;;11.40;6.68;;;;;;;18.06;nan;99737.88;5033359;28;20502;-70
2022/06/10 00:40:58;;;;;;;9.43;6.00;;;;;;;18.02;nan;99742.22;5039095;28;20033;-72
2022/06/10 00:43:33;;;;;;;12.93;6.28;;;;;;;18.07;nan;99746.66;5034254;28;20124;-70
2022/06/10 00:46:17;;;;;;;9.98;6.45;;;;;;;18.06;nan;99747.75;5042581;28;20021;-72
2022/06/10 00:49:05;;;;;;;11.15;6.55;;;;;;;18.04;nan;99753.38;5020877;28;20067;-72
2022/06/10 00:51:39;;;;;;;9.02;6.63;;;;;;;18.03;nan;99757.13;5038901;28;20041;-70
2022/06/10 00:54:17;;;;;;;12.40;6.68;;;;;;;18.02;nan;99762.75;5039352;28;20071;-71
2022/06/10 00:56:51;;;;;;;9.52;6.65;;;;;;;17.92;nan;99757.56;5041133;28;20029;-71
2022/06/10 00:59:25;;;;;;;17.40;7.28;;;;;;;17.83;nan;99762.75;5040081;28;20037;-72
2022/06/10 01:01:58;;;;;;;18.00;7.10;;;;;;;17.83;nan;99766.19;5034713;28;20038;-72
2022/06/10 01:04:26;;;;;;;10.82;6.80;;;;;;;17.72;nan;99753.28;5039303;28;20128;-70
2022/06/10 01:06:51;;;;;;;12.18;7.53;;;;;;;17.81;nan;99767.56;5032482;28;20553;-71
2022/06/10 01:09:17;;;;;;;11.60;7.10;;;;;;;17.78;nan;99768.13;5031323;28;20101;-71
2022/06/10 01:11:56;;;;;;;12.90;6.72;;;;;;;17.79;nan;99772.34;5028587;28;20060;-70
2022/06/10 01:14:28;;;;;;;14.00;6.93;;;;;;;17.77;nan;99771.88;5040175;28;20064;-71
2022/06/10 01:17:17;;;;;;;9.13;7.15;;;;;;;17.72;nan;99771.91;5033711;28;20399;-71
2022/06/10 01:20:02;;;;;;;10.35;6.85;;;;;;;17.72;nan;99783.38;5022309;28;20116;-72
2022/06/10 01:23:12;;;;;;;15.52;7.55;;;;;;;17.67;nan;99775.47;5040450;28;20033;-70
2022/06/10 01:25:59;;;;;;;12.43;7.68;;;;;;;17.65;nan;99781.06;5021973;28;20041;-70
2022/06/10 01:28:31;;;;;;;9.52;7.28;;;;;;;17.64;nan;99781.34;5036274;28;20372;-70
2022/06/10 01:31:09;;;;;;;11.80;7.85;;;;;;;17.62;nan;99792.31;5040061;28;20041;-72
2022/06/10 01:33:59;;;;;;;13.63;7.72;;;;;;;17.61;nan;99789.91;5045025;28;20033;-71
2022/06/10 01:36:47;;;;;;;11.25;7.68;;;;;;;17.44;nan;99791.19;5021774;28;20521;-71
2022/06/10 01:39:37;;;;;;;13.65;8.02;;;;;;;17.38;nan;99795.00;5019760;28;20121;-72
2022/06/10 01:42:14;;;;;;;13.20;7.93;;;;;;;;;;5030435;28;20060;-72
2022/06/10 01:44:48;;;;;;;11.77;7.25;;;;;;;;;;5044468;28;20095;-71
2022/06/10 01:47:22;;;;;;;14.48;7.82;;;;;;;;;;5038204;28;20044;-70
2022/06/10 01:50:04;;;;;;;18.25;7.43;;;;;;;17.16;nan;99800.03;5029266;28;20057;-70
2022/06/10 01:52:41;;;;;;;12.40;7.82;;;;;;;17.10;nan;99801.19;5045412;28;20487;-71
2022/06/10 01:55:19;;;;;;;14.50;7.65;;;;;;;;;;5034982;28;20034;-70
2022/06/10 01:57:44;;;;;;;11.55;7.43;;;;;;;;;;5031381;28;20525;-71
2022/06/10 02:00:15;;;;;;;18.50;8.03;;;;;;;;;;5029802;28;20042;-70
2022/06/10 02:02:42;;;;;;;10.20;7.45;;;;;;;;;;5047912;28;20044;-71
2022/06/10 02:05:13;;;;;;;15.20;8.25;;;;;;;17.01;nan;99750.47;5045348;28;20083;-71
2022/06/10 02:07:42;;;;;;;12.20;7.88;;;;;;;;;;5035391;28;20056;-72
2022/06/10 02:10:22;;;;;;;11.57;7.72;;;;;;;;;;5044748;28;20037;-71
2022/06/10 02:12:50;;;;;;;13.85;8.00;;;;;;;;;;5027011;28;20562;-72
2022/06/10 02:15:18;;;;;;;10.65;7.25;;;;;;;;;;5027758;28;20399;-71
2022/06/10 02:17:46;;;;;;;15.15;8.52;;;;;;;;;;5042173;28;20037;-72
2022/06/10 02:20:14;;;;;;;17.05;8.52;;;;;;;;;;5038641;28;20622;-72
2022/06/10 02:22:45;;;;;;;17.95;8.00;;;;;;;;;;5036426;28;20487;-71
2022/06/10 02:25:10;;;;;;;13.38;8.00;;;;;;;;;;5043225;28;20046;-72
2022/06/10 02:27:38;;;;;;;14.17;8.33;;;;;;;;;;5039083;28;20084;-73
2022/06/10 02:30:06;;;;;;;16.15;8.05;;;;;;;;;;5032430;28;20032;-71
2022/06/10 02:32:33;;;;;;;11.00;8.27;;;;;;;;;;5030213;28;20491;-73
2022/06/10 02:34:59;;;;;;;12.70;7.97;;;;;;;17.04;nan;99839.53;5044092;28;20037;-71
2022/06/10 02:37:39;;;;;;;14.57;8.43;;;;;;;;;;5026184;28;20523;-72
2022/06/10 02:40:05;;;;;;;14.85;8.10;;;;;;;;;;5036930;28;20463;-73
2022/06/10 02:42:30;;;;;;;14.63;8.73;;;;;;;;;;5042274;28;20049;-73
2022/06/10 02:45:13;;;;;;;12.07;9.13;;;;;;;;;;5037489;28;20037;-73
2022/06/10 02:47:47;;;;;;;16.63;9.10;;;;;;;;;;5037627;28;20033;-71
2022/06/10 02:50:13;;;;;;;19.23;9.63;;;;;;;;;;5044993;28;20044;-72
2022/06/10 02:52:39;;;;;;;17.85;10.38;;;;;;;;;;5037758;28;20043;-71
2022/06/10 02:55:06;;;;;;;16.83;11.15;;;;;;;;;;5018489;28;20147;-72
2022/06/10 03:03:09;;;;;;;15.15;9.73;;;;;;;;;;5047978;28;20045;-72
2022/06/10 03:05:35;;;;;;;15.70;9.35;;;;;;;;;;5040977;28;20399;-71
2022/06/10 03:08:07;;;;;;;15.57;9.23;;;;;;;;;;5018852;28;20041;-73
2022/06/10 03:10:48;;;;;;;13.25;8.68;;;;;;;;;;5022300;28;20084;-73
2022/06/10 03:13:16;;;;;;;13.48;8.30;;;;;;;;;;5041511;28;20036;-71
2022/06/10 03:16:01;;;;;;;14.52;8.90;;;;;;;;;;5036596;28;20040;-73
2022/06/10 03:18:33;;;;;;;13.10;8.00;;;;;;;;;;5045294;28;20127;-71
2022/06/10 03:21:04;;;;;;;16.27;8.43;;;;;;;;;;5047166;28;20444;-71
2022/06/10 03:23:32;;;;;;;13.18;8.57;;;;;;;;;;5039470;28;20044;-72
2022/06/10 03:26:23;;;;;;;14.88;8.52;;;;;;;;;;5043768;28;20120;-72
2022/06/10 03:28:57;;;;;;;15.18;9.00;;;;;;;;;;5008582;28;20064;-72
2022/06/10 03:31:34;;;;;;;17.27;8.73;;;;;;;;;;5047260;28;20037;-71
2022/06/10 03:34:23;;;;;;;14.43;9.25;;;;;;;;;;5040809;28;20111;-70
2022/06/10 03:36:49;;;;;;;17.08;9.80;;;;;;;;;;5033354;28;20033;-71
2022/06/10 03:39:14;;;;;;;19.17;9.63;;;;;;;;;;5018715;28;20044;-71
2022/06/10 03:41:42;;;;;;;16.60;9.75;;;;;;;;;;5028872;28;20407;-73
2022/06/10 03:44:13;;;;;;;20.38;9.48;;;;;;;;;;5034524;28;20029;-73
2022/06/10 03:46:38;;;;;;;21.85;9.70;;;;;;;;;;5033307;28;20545;-71
2022/06/10 03:49:09;;;;;;;23.48;10.57;;;;;;;;;;5042846;28;20037;-72
2022/06/10 03:51:35;;;;;;;22.90;9.65;;;;;;;;;;5032036;28;20392;-73
2022/06/10 03:54:00;;;;;;;16.88;9.70;;;;;;;;;;5027938;28;20041;-71
2022/06/10 03:56:25;;;;;;;22.33;10.48;;;;;;;;;;5043283;28;20037;-73
2022/06/10 03:58:51;;;;;;;19.07;9.93;;;;;;;;;;5043225;28;20049;-71
2022/06/10 04:01:17;;;;;;;16.73;9.60;;;;;;;17.12;nan;99898.25;5039544;28;20510;-72
2022/06/10 04:03:42;;;;;;;23.63;10.18;;;;;;;;;;5044856;28;20498;-72
2022/06/10 04:06:08;;;;;;;15.17;9.67;;;;;;;;;;5017212;28;20488;-71
2022/06/10 04:08:33;;;;;;;21.70;9.57;;;;;;;;;;5019233;28;20282;-71
2022/06/10 04:10:58;;;;;;;20.23;10.07;;;;;;;;;;5018938;28;20098;-72
2022/06/10 04:13:24;;;;;;;17.48;9.93;;;;;;;;;;5032705;28;20056;-71
2022/06/10 04:15:49;;;;;;;15.57;9.02;;;;;;;;;;5039147;28;20044;-74
2022/06/10 04:18:15;;;;;;;17.85;10.15;;;;;;;;;;5021079;28;20037;-73
2022/06/10 04:20:41;;;;;;;18.55;9.65;;;;;;;;;;5031951;28;20041;-66
2022/06/10 04:23:06;;;;;;;19.35;10.80;;;;;;;;;;5038991;28;20060;-67
2022/06/10 04:25:32;;;;;;;17.63;9.85;;;;;;;;;;5039175;28;20511;-67
2022/06/10 04:27:58;;;;;;;17.25;11.13;;;;;;;;;;5047747;28;20040;-67
2022/06/10 04:30:31;;;;;;;23.60;11.95;;;;;;;17.81;nan;99842.94;5048347;28;20454;-67
2022/06/10 04:32:57;;;;;;;29.35;11.90;;;;;;;17.97;nan;99861.38;5037237;28;20033;-67
2022/06/10 04:35:24;;;;;;;24.80;11.38;;;;;;;18.10;nan;99859.88;5026425;28;20040;-67
2022/06/10 04:37:51;;;;;;;22.98;10.95;;;;;;;18.26;nan;99867.34;5036343;28;20029;-66
2022/06/10 04:40:20;;;;;;;29.10;10.40;;;;;;;18.39;nan;99849.84;5031033;28;20037;-67
2022/06/10 04:42:48;;;;;;;22.10;9.85;;;;;;;18.56;nan;99875.22;5035090;28;20033;-67
2022/06/10 04:45:16;;;;;;;19.15;9.27;;;;;;;18.68;nan;99879.00;5032113;28;20130;-67
2022/06/10 04:47:42;;;;;;;21.35;9.27;;;;;;;18.77;nan;99871.16;5036253;28;20083;-67
2022/06/10 04:50:11;;;;;;;15.35;8.48;;;;;;;18.85;nan;99861.69;5032401;28;20021;-67
2022/06/10 04:52:37;;;;;;;23.88;8.70;;;;;;;18.93;nan;99828.97;5038043;28;20045;-67
2022/06/10 04:55:04;;;;;;;15.82;8.73;;;;;;;19.02;nan;99869.91;5039436;28;20041;-67
2022/06/10 04:57:29;;;;;;;21.48;10.68;;;;;;;19.15;nan;99835.53;5036937;28;20041;-67
2022/06/10 04:59:55;;;;;;;30.00;14.57;;;;;;;19.27;nan;99867.88;5039797;28;20036;-67
2022/06/10 05:02:21;;;;;;;27.33;15.68;;;;;;;19.31;nan;99876.88;5036261;28;20152;-67
2022/06/10 05:04:47;;;;;;;25.02;15.57;;;;;;;19.40;nan;99860.97;5033436;28;20044;-67
2022/06/10 05:07:12;;;;;;;24.25;15.50;;;;;;;19.51;nan;99870.34;5040810;28;20386;-68
2022/06/10 05:09:38;;;;;;;15.88;8.80;;;;;;;19.58;nan;99915.34;5033671;28;20040;-75
2022/06/10 05:12:04;;;;;;;10.95;6.18;;;;;;;19.67;nan;99905.56;5040163;28;20079;-73
2022/06/10 05:14:29;;;;;;;11.32;5.70;;;;;;;19.89;nan;99923.59;5044865;28;20387;-73
2022/06/10 05:16:56;;;;;;;11.52;5.15;;;;;;;19.97;nan;99915.66;5049556;28;20037;-73
2022/06/10 05:19:22;;;;;;;8.32;4.80;;;;;;;20.14;nan;99920.38;5044696;28;20036;-73
2022/06/10 05:21:47;;;;;;;11.57;4.95;;;;;;;20.17;nan;99909.09;5034493;28;20040;-71
2022/06/10 05:24:14;;;;;;;9.30;4.78;;;;;;;20.26;nan;99917.19;5040285;28;20415;-73
2022/06/10 05:26:40;;;;;;;9.85;4.47;;;;;;;20.31;nan;99914.41;5014516;28;20029;-73
2022/06/10 05:29:05;;;;;;;9.43;4.40;;;;;;;20.48;nan;99926.34;5032352;28;20039;-72
2022/06/10 05:31:31;;;;;;;11.02;4.05;;;;;;;20.59;nan;99925.84;5032957;28;20041;-73
2022/06/10 05:36:40;;;;;;;6.80;4.43;;;;;;;20.77;nan;99928.63;5035391;28;20029;-73
2022/06/10 05:39:06;;;;;;;6.35;3.67;;;;;;;20.79;nan;99915.75;5041470;28;20029;-73
2022/06/10 05:44:16;;;;;;;7.90;4.45;;;;;;;20.94;nan;99909.22;5034019;28;20065;-74
2022/06/10 05:46:41;;;;;;;9.05;4.28;;;;;;;21.09;nan;99929.44;5033773;28;20049;-73
2022/06/10 05:49:07;;;;;;;8.85;4.00;;;;;;;21.13;nan;99928.53;5024366;28;20040;-72
2022/06/10 05:51:33;;;;;;;7.03;4.10;;;;;;;21.23;nan;99927.47;5043473;28;20079;-72
2022/06/10 05:53:59;;;;;;;6.97;3.97;;;;;;;21.33;nan;99931.78;5045758;28;20025;-71
2022/06/10 05:56:24;;;;;;;6.60;3.83;;;;;;;21.40;nan;99940.97;5043779;28;20502;-72
2022/06/10 05:58:49;;;;;;;7.68;3.88;;;;;;;21.46;nan;99941.66;5022541;28;20412;-72
2022/06/10 06:01:15;;;;;;;5.20;3.47;;;;;;;21.54;nan;99948.91;5046841;28;20034;-71
2022/06/10 06:03:41;;;;;;;7.55;3.50;;;;;;;21.61;nan;99945.81;5045258;28;20044;-72
2022/06/10 06:06:08;;;;;;;13.52;3.20;;;;;;;21.68;nan;99948.81;5036278;28;20540;-72
2022/06/10 06:08:35;;;;;;;6.75;3.13;;;;;;;21.71;nan;99950.09;5046144;28;20407;-71
2022/06/10 06:11:00;;;;;;;7.45;3.00;;;;;;;21.81;nan;99949.78;5037519;28;20071;-71
2022/06/10 06:13:26;;;;;;;7.88;3.20;;;;;;;21.81;nan;99937.22;5032758;28;20024;-72
2022/06/10 06:15:51;;;;;;;3.88;2.95;;;;;;;21.86;nan;99946.97;5037566;28;20037;-72
2022/06/10 06:18:17;;;;;;;6.93;2.85;;;;;;;21.90;nan;99945.25;5034566;28;20400;-72
2022/06/10 06:20:42;;;;;;;6.65;3.05;;;;;;;21.96;nan;99957.44;5038646;28;20041;-72
2022/06/10 06:23:08;;;;;;;7.22;3.08;;;;;;;22.04;nan;99950.50;5038533;28;20029;-72
2022/06/10 06:25:34;;;;;;;6.10;2.90;;;;;;;22.10;nan;99954.63;5048027;28;20045;-72
2022/06/10 06:27:59;;;;;;;4.32;3.00;;;;;;;22.13;nan;99954.00;5026431;28;20025;-73
2022/06/10 06:30:32;;;;;;;5.50;3.00;;;;;;;22.09;nan;99955.72;5032651;28;20040;-73
2022/06/10 06:33:00;;;;;;;8.18;3.10;;;;;;;22.07;nan;99947.97;5034702;28;20064;-70
2022/06/10 06:35:26;;;;;;;6.72;3.20;;;;;;;22.20;nan;99965.06;5038373;28;20030;-72
2022/06/10 06:37:55;;;;;;;7.75;3.03;;;;;;;22.21;nan;99961.28;5024916;28;20551;-71
2022/06/10 06:40:21;;;;;;;7.75;3.45;;;;;;;22.24;nan;99960.66;5039063;28;20128;-71
2022/06/10 06:42:47;;;;;;;7.90;2.92;;;;;;;22.24;nan;99968.72;5039635;28;20033;-71
2022/06/10 06:45:14;;;;;;;4.85;3.28;;;;;;;22.25;nan;99956.09;5037575;28;20060;-72
2022/06/10 06:47:40;;;;;;;6.55;3.22;;;;;;;22.37;nan;99971.56;5041564;28;20033;-67
2022/06/10 06:50:07;;;;;;;4.82;2.90;;;;;;;22.53;nan;99975.38;5046639;28;20025;-67
2022/06/10 06:52:32;;;;;;;8.15;3.15;;;;;;;22.51;nan;99964.16;5018863;28;20037;-69
2022/06/10 06:54:58;;;;;;;8.10;2.88;;;;;;;22.43;nan;99946.94;5037887;28;20036;-68
2022/06/10 06:57:25;;;;;;;9.15;3.00;;;;;;;22.65;nan;99980.09;5029242;28;20186;-69
2022/06/10 06:59:53;;;;;;;11.10;3.10;;;;;;;22.68;nan;99979.47;5037988;28;20097;-68
2022/06/10 07:02:19;;;;;;;8.38;3.05;;;;;;;22.68;nan;99980.25;5036973;28;20025;-70
2022/06/10 07:04:45;;;;;;;6.65;3.15;;;;;;;22.76;nan;99980.56;5037811;28;20055;-72
2022/06/10 07:07:11;;;;;;;12.82;3.00;;;;;;;22.83;nan;99986.25;5038824;28;20033;-72
2022/06/10 07:09:37;;;;;;;11.60;3.10;;;;;;;22.93;nan;99988.59;5037482;28;20033;-73
2022/06/10 07:12:03;;;;;;;6.65;2.90;;;;;;;22.89;nan;99975.03;5040174;28;20079;-73
2022/06/10 07:14:29;;;;;;;9.80;3.13;;;;;;;22.96;nan;99977.22;5039255;28;20041;-73
2022/06/10 07:16:54;;;;;;;6.32;2.70;;;;;;;22.89;nan;99971.53;5040812;28;20041;-73
2022/06/10 07:19:21;;;;;;;9.32;2.97;;;;;;;23.06;nan;99990.38;5037585;28;20092;-72
2022/06/10 07:21:47;;;;;;;9.18;3.10;;;;;;;23.09;nan;99986.25;5029925;28;20074;-73
2022/06/10 07:24:13;;;;;;;10.02;3.50;;;;;;;23.17;nan;99980.06;5025435;28;20037;-73
2022/06/10 07:26:39;;;;;;;6.03;2.50;;;;;;;23.24;nan;99982.28;5048197;28;21333;-73
2022/06/10 07:29:06;;;;;;;4.90;2.83;;;;;;;23.35;nan;99981.59;5039738;28;20120;-73
2022/06/10 07:31:32;;;;;;;5.75;2.53;;;;;;;23.34;nan;99963.91;5045591;28;21321;-71
2022/06/10 07:33:58;;;;;;;4.80;2.55;;;;;;;23.49;nan;99978.72;5047622;28;20527;-72
2022/06/10 07:36:24;;;;;;;11.45;2.92;;;;;;;23.52;nan;99974.59;5034832;28;20139;-73
2022/06/10 07:38:50;;;;;;;7.68;2.70;;;;;;;23.56;nan;99970.16;5049238;28;20115;-75
2022/06/10 07:43:59;;;;;;;8.85;2.90;;;;;;;23.62;nan;99968.09;5046941;28;20091;-73
2022/06/10 07:46:25;;;;;;;10.57;2.30;;;;;;;23.81;nan;99983.84;5041718;28;20506;-73
2022/06/10 07:48:51;;;;;;;2.63;2.10;;;;;;;23.79;nan;99973.41;5030218;28;20404;-72
2022/06/10 07:51:18;;;;;;;3.45;1.85;;;;;;;23.99;nan;99980.75;5038314;28;20028;-73
2022/06/10 07:53:44;;;;;;;5.22;1.70;;;;;;;24.12;nan;99978.13;5025439;28;20029;-74
2022/06/10 07:56:13;;;;;;;5.07;1.88;;;;;;;24.22;nan;99985.03;5043521;28;20476;-72
2022/06/10 07:58:39;;;;;;;6.68;2.08;;;;;;;24.31;nan;99977.69;5041818;28;20037;-69
2022/06/10 08:01:04;;;;;;;5.28;1.50;;;;;;;24.37;nan;99982.56;5030240;28;20627;-70
2022/06/10 08:03:30;;;;;;;5.35;1.85;;;;;;;24.49;nan;99984.53;5025007;28;20037;-73
2022/06/10 08:05:56;;;;;;;3.08;1.55;;;;;;;24.63;nan;99985.06;5038913;28;20110;-71
2022/06/10 08:08:22;;;;;;;3.38;1.45;;;;;;;24.67;nan;99989.81;5043009;28;20478;-71
2022/06/10 08:10:48;;;;;;;2.70;1.23;;;;;;;24.70;nan;99991.84;5051708;28;20112;-71
2022/06/10 08:13:13;;;;;;;6.45;2.55;;;;;;;24.77;nan;99992.88;5027453;28;20116;-71
2022/06/10 08:15:40;;;;;;;4.93;1.80;;;;;;;24.87;nan;99985.50;5025513;28;20055;-71
2022/06/10 08:18:06;;;;;;;3.33;1.63;;;;;;;24.96;nan;99987.00;5033944;28;20111;-71
2022/06/10 08:23:24;;;;;;;2.58;1.40;;;;;;;25.17;nan;99999.66;5043548;28;20033;-70
2022/06/10 08:25:50;;;;;;;5.28;1.80;;;;;;;25.23;nan;99995.63;5047529;28;20117;-71
2022/06/10 08:28:16;;;;;;;2.67;1.60;;;;;;;25.23;nan;100001.03;5046081;28;20030;-70
2022/06/10 08:30:41;;;;;;;9.35;1.88;;;;;;;25.25;nan;99993.41;5048966;28;20037;-70
2022/06/10 08:33:06;;;;;;;3.92;1.42;;;;;;;25.26;nan;99984.22;5021154;28;20423;-71
2022/06/10 08:35:35;;;;;;;4.10;1.90;;;;;;;25.28;nan;99987.34;5037093;28;20041;-70
2022/06/10 08:38:01;;;;;;;9.27;2.00;;;;;;;25.39;nan;100001.19;5046896;28;20715;-71
2022/06/10 08:40:48;;;;;;;7.15;1.60;;;;;;;25.51;nan;100005.81;5039158;28;20043;-71
2022/06/10 08:43:35;;;;;;;4.97;1.92;;;;;;;25.56;nan;99998.28;5047133;28;20135;-71
2022/06/10 08:46:28;;;;;;;2.88;1.67;;;;;;;25.61;nan;99994.59;5040619;28;20037;-71
2022/06/10 08:49:31;;;;;;;2.40;1.42;;;;;;;25.66;nan;100002.44;5044368;28;20037;-70
2022/06/10 08:52:24;;;;;;;3.13;1.40;;;;;;;25.59;nan;100005.69;5027899;28;20038;-73
2022/06/10 08:55:10;;;;;;;10.50;1.75;;;;;;;25.42;nan;100008.59;5033018;28;20103;-71
2022/06/10 08:57:43;;;;;;;4.43;1.70;;;;;;;25.21;nan;100006.78;5046652;28;20035;-71
2022/06/10 09:00:18;;;;;;;5.78;1.63;;;;;;;25.25;nan;100013.03;5023143;28;20041;-69
2022/06/10 09:02:55;;;;;;;5.70;1.65;;;;;;;25.23;nan;100023.38;5035456;28;20103;-72
2022/06/10 09:05:23;;;;;;;3.60;1.50;;;;;;;25.17;nan;100013.94;5042748;28;20043;-71
2022/06/10 09:07:49;;;;;;;3.65;1.80;;;;;;;25.25;nan;100017.66;5039799;28;20104;-72
2022/06/10 09:10:23;;;;;;;4.10;1.40;;;;;;;25.27;nan;100003.84;5043299;28;20064;-71
2022/06/10 09:13:11;;;;;;;5.22;1.70;;;;;;;25.39;nan;100012.75;5032440;28;20045;-73
2022/06/10 09:15:48;;;;;;;4.28;1.60;;;;;;;25.42;nan;99997.81;5035541;28;20033;-72
2022/06/10 09:18:28;;;;;;;5.20;1.30;;;;;;;25.54;nan;100007.81;5044210;28;20094;-70
2022/06/10 09:20:57;;;;;;;4.88;1.67;;;;;;;25.63;nan;100011.22;5032569;28;20048;-71
2022/06/10 09:23:38;;;;;;;;;;;;;;;25.74;nan;100009.66;5037032;28;20505;-71
2022/06/10 09:26:10;;;;;;;3.28;1.40;;;;;;;25.80;nan;100019.09;5046548;28;19920;-71
2022/06/10 09:28:39;;;;;;;3.58;1.40;;;;;;;25.81;nan;100022.56;5043026;28;20047;-71
2022/06/10 09:31:23;;;;;;;2.70;1.60;;;;;;;25.82;nan;100006.06;5031260;28;20045;-71
2022/06/10 09:34:20;;;;;;;2.80;1.70;;;;;;;25.88;nan;100012.03;5018691;28;20164;-72
2022/06/10 09:36:59;;;;;;;6.95;1.98;;;;;;;25.90;nan;99999.00;5046131;28;20041;-71
2022/06/10 09:42:35;;;;;;;2.30;1.75;;;;;;;26.01;nan;100008.22;5053571;28;20279;-71
2022/06/10 09:45:26;;;;;;;3.17;1.50;;;;;;;26.08;nan;100030.03;5042825;28;20055;-72
2022/06/10 09:48:22;;;;;;;5.20;1.80;;;;;;;26.13;nan;100028.22;5044159;28;21727;-72
2022/06/10 09:51:05;;;;;;;2.38;1.75;;;;;;;26.13;nan;100004.72;5041164;28;20091;-73
2022/06/10 09:53:50;;;;;;;4.40;1.60;;;;;;;26.22;nan;100021.59;5020118;28;20420;-72
2022/06/10 09:56:15;;;;;;;4.43;1.75;;;;;;;26.23;nan;100008.88;5042063;28;20499;-71
2022/06/10 09:59:07;;;;;;;5.50;1.98;;;;;;;26.22;nan;100001.91;5018937;28;20041;-72
2022/06/10 10:01:33;;;;;;;6.65;2.58;;;;;;;26.38;nan;100008.16;5018444;28;20093;-71
2022/06/10 10:04:32;;;;;;;4.30;1.60;;;;;;;26.47;nan;99997.22;5038637;28;20072;-71
2022/06/10 10:07:12;;;;;;;3.75;1.52;;;;;;;26.54;nan;99988.59;5046267;28;20059;-71
2022/06/10 10:10:29;;;;;;;5.80;1.50;;;;;;;26.59;nan;100001.84;5042545;28;20419;-71
2022/06/10 10:13:09;;;;;;;6.68;1.70;;;;;;;26.64;nan;100007.78;5023783;28;20047;-71
2022/06/10 10:15:49;;;;;;;3.30;1.90;;;;;;;26.75;nan;100000.00;5025782;28;20032;-71
2022/06/10 10:18:39;;;;;;;3.40;1.55;;;;;;;26.85;nan;99998.72;5038260;28;20420;-71
2022/06/10 10:21:39;;;;;;;6.72;1.60;;;;;;;26.86;nan;99982.13;5017175;28;20052;-71
2022/06/10 10:24:14;;;;;;;6.63;2.00;;;;;;;27.03;nan;99982.97;5024957;28;20225;-71
2022/06/10 10:26:44;;;;;;;4.55;1.92;;;;;;;27.08;nan;99978.13;5039913;28;20021;-71
2022/06/10 10:29:22;;;;;;;5.35;1.60;;;;;;;27.15;nan;99988.31;5025696;28;20060;-72
2022/06/10 10:32:11;;;;;;;4.33;1.67;;;;;;;27.24;nan;99997.06;5021351;28;20044;-72
2022/06/10 10:34:39;;;;;;;4.75;1.80;;;;;;;27.37;nan;100000.50;5040860;28;20553;-72
2022/06/10 10:37:21;;;;;;;7.57;1.98;;;;;;;27.52;nan;99985.41;5040502;28;20080;-72
2022/06/10 10:40:00;;;;;;;7.43;1.98;;;;;;;27.61;nan;99980.63;5045004;28;20040;-72
2022/06/10 10:42:45;;;;;;;5.32;1.90;;;;;;;27.72;nan;99978.91;5023128;28;20483;-73
2022/06/10 10:45:16;;;;;;;6.07;1.60;;;;;;;27.79;nan;99981.78;5035066;28;20041;-74
2022/06/10 10:47:54;;;;;;;5.38;1.88;;;;;;;27.70;nan;99975.81;5044727;28;20028;-73
2022/06/10 10:50:31;;;;;;;4.82;1.42;;;;;;;27.87;nan;99988.22;5028451;28;20396;-72
2022/06/10 10:53:00;;;;;;;8.13;1.60;;;;;;;27.88;nan;99978.16;5044858;28;20029;-73
2022/06/10 10:55:35;;;;;;;4.82;1.63;;;;;;;27.95;nan;99998.03;5046173;28;20083;-72
2022/06/10 10:58:18;;;;;;;4.30;1.45;;;;;;;27.97;nan;99992.28;5045848;28;20041;-73
2022/06/10 11:00:52;;;;;;;5.10;1.48;;;;;;;28.00;nan;99988.88;5026962;28;20191;-73
2022/06/10 11:03:29;;;;;;;3.65;1.70;;;;;;;28.03;nan;99987.38;5045300;28;20029;-73
2022/06/10 11:05:57;;;;;;;9.65;1.90;;;;;;;28.04;nan;99987.03;5036011;28;20562;-72
2022/06/10 11:08:24;;;;;;;10.20;2.03;;;;;;;28.06;nan;99984.75;5052461;28;20048;-72
2022/06/10 11:11:00;;;;;;;3.95;1.63;;;;;;;27.95;nan;99981.81;5016121;28;20666;-73
2022/06/10 11:13:48;;;;;;;3.17;1.63;;;;;;;28.02;nan;99980.41;5042738;28;20069;-72
2022/06/10 11:16:31;;;;;;;6.63;2.25;;;;;;;28.07;nan;99963.91;5044005;28;20048;-72
2022/06/10 11:19:37;;;;;;;8.43;1.80;;;;;;;28.08;nan;99987.88;5040885;28;20055;-72
2022/06/10 11:22:21;;;;;;;3.13;1.58;;;;;;;28.09;nan;99978.63;5040232;28;20094;-72
2022/06/10 11:25:15;;;;;;;6.13;2.20;;;;;;;28.08;nan;99970.88;5033901;28;20037;-72
2022/06/10 11:28:05;;;;;;;5.10;2.40;;;;;;;28.17;nan;99958.69;5034147;28;20034;-72
2022/06/10 11:30:41;;;;;;;6.95;1.80;;;;;;;28.13;nan;99948.94;5049819;28;20131;-72
2022/06/10 11:33:23;;;;;;;4.13;1.75;;;;;;;28.24;nan;99954.59;5023908;28;20029;-72
2022/06/10 11:36:02;;;;;;;7.07;2.15;;;;;;;28.25;nan;99946.09;5035484;28;20369;-72
2022/06/10 11:38:31;;;;;;;8.25;2.00;;;;;;;28.25;nan;99954.22;5027710;28;20030;-72
2022/06/10 11:41:00;;;;;;;4.78;1.80;;;;;;;28.08;nan;99925.63;5037062;28;20068;-72
2022/06/10 11:43:39;;;;;;;2.65;1.77;;;;;;;28.26;nan;99944.19;5042257;28;20033;-72
2022/06/10 11:46:09;;;;;;;5.38;2.15;;;;;;;28.28;nan;99933.75;5048893;28;20021;-73
2022/06/10 11:48:50;;;;;;;3.65;1.70;;;;;;;28.34;nan;99941.25;5025445;28;20037;-73
2022/06/10 11:51:41;;;;;;;2.60;1.90;;;;;;;28.33;nan;99939.69;5024452;28;20039;-72
2022/06/10 11:54:26;;;;;;;8.15;1.80;;;;;;;28.34;nan;99932.34;5036593;28;20048;-72
2022/06/10 11:59:55;;;;;;;4.20;1.92;;;;;;;28.47;nan;99939.22;5033233;28;20112;-72
2022/06/10 12:02:41;;;;;;;3.22;2.08;;;;;;;28.49;nan;99939.63;5036185;28;20048;-71
2022/06/10 12:05:26;;;;;;;4.82;1.88;;;;;;;28.54;nan;99942.06;5037051;28;20045;-72
2022/06/10 12:08:07;;;;;;;6.25;1.77;;;;;;;28.54;nan;99933.94;5051636;28;20029;-73
2022/06/10 12:10:45;;;;;;;7.55;1.73;;;;;;;28.55;nan;99940.94;5030198;28;20493;-72
2022/06/10 12:13:13;;;;;;;4.63;1.90;;;;;;;28.56;nan;99939.00;5043280;28;20044;-72
2022/06/10 12:15:49;;;;;;;4.25;1.67;;;;;;;28.52;nan;99930.81;5046620;28;20021;-72
2022/06/10 12:18:16;;;;;;;6.55;1.60;;;;;;;28.56;nan;99939.00;5051105;28;20041;-72
2022/06/10 12:20:57;;;;;;;4.45;1.85;;;;;;;28.62;nan;99927.50;5042102;28;20036;-72
2022/06/10 12:23:26;;;;;;;4.53;1.75;;;;;;;28.61;nan;99931.38;5040797;28;20033;-72
2022/06/10 12:26:07;;;;;;;5.05;1.65;;;;;;;28.63;nan;99928.28;5041407;28;20029;-72
2022/06/10 12:28:54;;;;;;;4.90;1.65;;;;;;;28.73;nan;99937.75;5040337;28;20035;-72
2022/06/10 12:31:43;;;;;;;7.18;1.98;;;;;;;28.77;nan;99925.06;5038343;28;20110;-71
2022/06/10 12:34:09;;;;;;;4.97;1.83;;;;;;;28.84;nan;99933.31;5026824;28;20034;-71
2022/06/10 12:36:47;;;;;;;6.70;1.80;;;;;;;28.80;nan;99925.16;5037630;28;20033;-72
2022/06/10 12:39:20;;;;;;;5.43;1.95;;;;;;;28.74;nan;99929.28;5041018;28;20036;-72
2022/06/10 12:41:52;;;;;;;6.90;2.17;;;;;;;28.74;nan;99933.94;5038253;28;20029;-71
2022/06/10 12:44:25;;;;;;;2.47;1.80;;;;;;;28.68;nan;99924.50;5032427;28;20152;-72
2022/06/10 12:46:58;;;;;;;6.35;2.00;;;;;;;28.71;nan;99929.22;5025058;28;20075;-71
2022/06/10 12:49:42;;;;;;;7.18;1.98;;;;;;;28.63;nan;99925.59;5024276;28;20030;-72
2022/06/10 12:52:29;;;;;;;2.83;1.85;;;;;;;28.56;nan;99906.50;5026170;28;20061;-72
2022/06/10 12:55:13;;;;;;;4.53;2.00;;;;;;;28.50;nan;99924.97;5045040;28;20075;-72
2022/06/10 12:57:44;;;;;;;4.70;2.10;;;;;;;28.45;nan;99922.53;5035054;28;20033;-73
2022/06/10 13:00:22;;;;;;;3.30;2.10;;;;;;;28.50;nan;99924.97;5039184;28;20033;-72
2022/06/10 13:02:54;;;;;;;4.40;1.83;;;;;;;28.52;nan;99922.69;5029038;28;20033;-72